New Winchester, Ohio
Current Conditions -  °F | °C
As of 7:53 PM on Saturday 25 Oct 2014 (Local Time) from KMNN Reporting Station
Clear Clear  
Wind Chill: 63°   Ceiling: Unl
Heat Index: 63°   Visibility: 10mi
Dew Point: 39°   Wind: 9mph
Humidity: 41%   Direction: 290°WNW
Pressure: 29.84"   Gusts: NA
Location:  40.815°N, 82.9723°W
Report Text: KMNN 252353Z AUTO 29008KT 10SM CLR 17/04 A2984 RMK AO2 SLP104 60000 T01720039 10228 20172 51005 TSNO
Loading
Personal Weather Stations






























Interactive Weather Map New forecast layout! Learn more

10-Day Weather Forecast

Advertisements
Track Severe Weather on mobile